Time;durP1;ratioP1;P1;durP2;ratioP2;P2;SDS_P1;SDS_P2;PMS_P1;PMS_P2;Temp;Humidity;BMP_temperature;BMP_pressure;BME280_temperature;BME280_humidity;BME280_pressure;Samples;Min_cycle;Max_cycle;Signal;HPM_P1;HPM_P2
2023/05/02 00:00:32;;;;;;;2.08;0.80;;;10.70;99.90;;;;;;4986528;28;20568;-87
2023/05/02 00:02:57;;;;;;;2.85;1.17;;;10.70;99.90;;;;;;4984248;28;20046;-81
2023/05/02 00:05:23;;;;;;;2.05;1.05;;;10.60;99.90;;;;;;4985344;28;20049;-81
2023/05/02 00:07:50;;;;;;;2.10;1.42;;;10.60;99.90;;;;;;4966430;28;20551;-84
2023/05/02 00:10:16;;;;;;;2.78;0.85;;;10.60;99.90;;;;;;4985410;28;20129;-84
2023/05/02 00:12:42;;;;;;;0.98;0.63;;;10.60;99.90;;;;;;4984997;28;20054;-85
2023/05/02 00:15:08;;;;;;;1.75;0.70;;;10.60;99.90;;;;;;4985242;28;20046;-83
2023/05/02 00:17:34;;;;;;;1.02;0.90;;;10.50;99.90;;;;;;4984802;28;20043;-86
2023/05/02 00:19:59;;;;;;;2.15;0.50;;;10.50;99.90;;;;;;4983373;28;20042;-83
2023/05/02 00:22:25;;;;;;;14.20;1.63;;;10.50;99.90;;;;;;4967100;28;20039;-84
2023/05/02 00:24:56;;;;;;;1.52;0.80;;;10.50;99.90;;;;;;4983292;28;20046;-85
2023/05/02 00:27:22;;;;;;;1.48;0.65;;;10.50;99.90;;;;;;4984048;28;20362;-85
2023/05/02 00:29:47;;;;;;;3.45;1.60;;;10.50;99.90;;;;;;4984530;28;20100;-84
2023/05/02 00:32:13;;;;;;;2.15;0.75;;;10.50;99.90;;;;;;4984973;28;20051;-86
2023/05/02 00:34:39;;;;;;;1.23;1.10;;;10.50;99.90;;;;;;4983416;28;20058;-81
2023/05/02 00:37:06;;;;;;;2.55;1.00;;;10.50;99.90;;;;;;4983207;28;20034;-85
2023/05/02 00:39:33;;;;;;;1.67;0.80;;;10.50;99.90;;;;;;4984428;28;20054;-82
2023/05/02 00:41:59;;;;;;;1.90;1.17;;;10.50;99.90;;;;;;4983324;28;20097;-81
2023/05/02 00:44:25;;;;;;;1.02;0.70;;;10.50;99.90;;;;;;4983279;28;20144;-86
2023/05/02 00:46:52;;;;;;;1.60;0.82;;;10.40;99.90;;;;;;4983391;28;20077;-84
2023/05/02 00:49:18;;;;;;;3.60;0.90;;;10.50;99.90;;;;;;4984604;28;20054;-85
2023/05/02 00:51:43;;;;;;;7.20;2.13;;;10.40;99.90;;;;;;4984094;28;20049;-83
2023/05/02 00:54:10;;;;;;;4.75;1.67;;;10.40;99.90;;;;;;4983989;28;20046;-84
2023/05/02 00:56:36;;;;;;;2.97;1.33;;;10.30;99.90;;;;;;4983111;28;20397;-80
2023/05/02 00:59:04;;;;;;;4.97;1.42;;;10.20;99.90;;;;;;4984466;28;20054;-85
2023/05/02 01:01:59;;;;;;;8.88;2.78;;;10.10;99.90;;;;;;4984424;28;20054;-85
2023/05/02 01:04:57;;;;;;;2.72;2.10;;;10.10;99.90;;;;;;4985124;28;20585;-84
2023/05/02 01:07:35;;;;;;;6.80;2.88;;;10.00;99.90;;;;;;4983367;28;20137;-84
2023/05/02 01:10:33;;;;;;;6.43;1.33;;;10.00;99.90;;;;;;4983794;28;20089;-85
2023/05/02 01:13:33;;;;;;;7.65;3.13;;;10.00;99.90;;;;;;4983657;28;20054;-86
2023/05/02 01:16:01;;;;;;;4.57;1.48;;;9.90;99.90;;;;;;4982547;28;20054;-84
2023/05/02 01:18:31;;;;;;;1.80;1.35;;;9.90;99.90;;;;;;4983131;28;20517;-86
2023/05/02 01:21:01;;;;;;;2.75;1.38;;;9.90;99.90;;;;;;4983414;28;20042;-85
2023/05/02 01:24:04;;;;;;;3.53;1.60;;;9.90;99.90;;;;;;4982372;28;20053;-83
2023/05/02 01:26:35;;;;;;;;;;;9.90;99.90;;;;;;4983065;28;20042;-86
2023/05/02 01:29:03;;;;;;;2.47;1.48;;;9.80;99.90;;;;;;4984022;28;19921;-82
2023/05/02 01:31:34;;;;;;;6.43;1.70;;;9.80;99.90;;;;;;4983465;28;20096;-83
2023/05/02 01:34:01;;;;;;;3.50;1.30;;;9.70;99.90;;;;;;4982292;28;20589;-83
2023/05/02 01:36:30;;;;;;;2.05;1.13;;;9.70;99.90;;;;;;4984409;28;20054;-85
2023/05/02 01:38:57;;;;;;;2.67;1.30;;;9.60;99.90;;;;;;4982446;28;20031;-84
2023/05/02 01:41:29;;;;;;;7.85;1.58;;;9.60;99.90;;;;;;4965597;28;20063;-84
2023/05/02 01:43:57;;;;;;;7.57;1.52;;;9.60;99.90;;;;;;4983759;28;20038;-82
2023/05/02 01:46:30;;;;;;;3.55;1.83;;;9.50;99.90;;;;;;4982269;28;20038;-86
2023/05/02 01:48:57;;;;;;;2.92;2.10;;;9.50;99.90;;;;;;4983861;28;20057;-86
2023/05/02 01:51:30;;;;;;;5.07;2.33;;;9.50;99.90;;;;;;4965565;28;20078;-85
2023/05/02 01:53:59;;;;;;;3.90;2.13;;;9.50;99.90;;;;;;4982408;28;20173;-84
2023/05/02 01:56:28;;;;;;;4.45;1.70;;;9.40;99.90;;;;;;4982004;28;20572;-82
2023/05/02 01:58:55;;;;;;;6.28;1.33;;;9.40;99.90;;;;;;4982216;28;20034;-86
2023/05/02 02:01:26;;;;;;;5.10;2.08;;;9.40;99.90;;;;;;4983463;28;20054;-84
2023/05/02 02:03:55;;;;;;;5.95;2.10;;;9.30;99.90;;;;;;4983099;28;20552;-83
2023/05/02 02:06:21;;;;;;;5.90;2.00;;;9.30;99.90;;;;;;4983126;28;20052;-85
2023/05/02 02:08:46;;;;;;;4.30;2.22;;;9.30;99.90;;;;;;4983147;28;20480;-85
2023/05/02 02:11:16;;;;;;;4.72;1.30;;;9.20;99.90;;;;;;4983665;28;20070;-84
2023/05/02 02:13:51;;;;;;;6.45;1.98;;;9.20;99.90;;;;;;4983720;28;20045;-85
2023/05/02 02:16:29;;;;;;;8.30;2.03;;;9.20;99.90;;;;;;4983458;28;20042;-84
2023/05/02 02:18:57;;;;;;;5.18;2.38;;;9.20;99.90;;;;;;4983018;28;20236;-83
2023/05/02 02:21:25;;;;;;;8.30;1.63;;;9.20;99.90;;;;;;4982673;28;20185;-84
2023/05/02 02:23:54;;;;;;;4.20;2.00;;;9.10;99.90;;;;;;4982235;28;20046;-85
2023/05/02 02:26:21;;;;;;;16.42;2.53;;;9.10;99.90;;;;;;4984222;28;20124;-85
2023/05/02 02:28:47;;;;;;;1.95;1.20;;;9.10;99.90;;;;;;4987505;28;20698;-83
2023/05/02 02:31:12;;;;;;;7.70;1.73;;;9.10;99.90;;;;;;4987201;28;20523;-85
2023/05/02 02:33:39;;;;;;;5.70;1.98;;;9.00;99.90;;;;;;4986953;28;20034;-84
2023/05/02 02:36:17;;;;;;;2.92;1.65;;;9.00;99.90;;;;;;4987170;28;20050;-86
2023/05/02 02:39:00;;;;;;;4.90;2.15;;;9.00;99.90;;;;;;4986169;28;20234;-84
2023/05/02 02:41:38;;;;;;;3.03;1.45;;;9.00;99.90;;;;;;4986917;28;20497;-86
2023/05/02 02:44:45;;;;;;;5.20;1.90;;;9.00;99.90;;;;;;4985581;28;20042;-85
2023/05/02 02:47:29;;;;;;;5.45;1.77;;;9.00;99.90;;;;;;4985074;28;20054;-85
2023/05/02 02:50:07;;;;;;;6.30;1.85;;;8.90;99.90;;;;;;4985546;28;20460;-85
2023/05/02 02:52:59;;;;;;;3.00;2.75;;;8.90;99.90;;;;;;4968582;28;20137;-84
2023/05/02 02:55:58;;;;;;;6.13;1.45;;;8.90;99.90;;;;;;4986009;28;20474;-84
2023/05/02 02:58:49;;;;;;;2.08;1.42;;;8.80;99.90;;;;;;4998561;28;20078;-86
2023/05/02 03:01:19;;;;;;;3.60;1.75;;;8.80;99.90;;;;;;4986774;28;20042;-84
2023/05/02 03:03:46;;;;;;;5.00;1.60;;;8.70;99.90;;;;;;4986639;28;20038;-85
2023/05/02 03:06:12;;;;;;;2.58;0.85;;;8.70;99.90;;;;;;4985390;28;20129;-87
2023/05/02 03:08:42;;;;;;;1.45;1.02;;;8.70;99.90;;;;;;4984988;28;20053;-85
2023/05/02 03:11:08;;;;;;;3.42;0.98;;;8.70;99.90;;;;;;4986218;28;20058;-83
2023/05/02 03:13:34;;;;;;;4.85;1.38;;;8.70;99.90;;;;;;4985256;28;20431;-86
2023/05/02 03:16:32;;;;;;;2.03;1.65;;;8.70;99.90;;;;;;4985705;28;20043;-83
2023/05/02 03:18:58;;;;;;;3.40;1.20;;;8.70;99.90;;;;;;4985466;28;20042;-84
2023/05/02 03:21:23;;;;;;;3.38;1.23;;;8.70;99.90;;;;;;4984584;28;20361;-83
2023/05/02 03:23:49;;;;;;;5.88;1.50;;;8.70;99.90;;;;;;4984102;28;20039;-86
2023/05/02 03:26:16;;;;;;;3.75;1.00;;;8.70;99.90;;;;;;4984975;28;20259;-84
2023/05/02 03:28:41;;;;;;;7.28;1.60;;;8.70;99.90;;;;;;4984902;28;20046;-84
2023/05/02 03:31:07;;;;;;;5.95;0.77;;;8.70;99.90;;;;;;4984534;28;20050;-84
2023/05/02 03:33:32;;;;;;;4.63;2.28;;;8.60;99.90;;;;;;4986082;28;20525;-83
2023/05/02 03:35:58;;;;;;;3.20;1.40;;;8.60;99.90;;;;;;4986116;28;20046;-85
2023/05/02 03:38:23;;;;;;;3.88;1.73;;;8.60;99.90;;;;;;4983313;28;20607;-81
2023/05/02 03:40:49;;;;;;;3.67;1.27;;;8.60;99.90;;;;;;4985985;28;20061;-86
2023/05/02 03:43:15;;;;;;;0.80;0.80;;;8.60;99.90;;;;;;4985582;28;20144;-86
2023/05/02 03:45:40;;;;;;;9.35;1.25;;;8.60;99.90;;;;;;4985746;28;20370;-81
2023/05/02 03:48:06;;;;;;;1.45;0.93;;;8.60;99.90;;;;;;4985308;28;20416;-86
2023/05/02 03:50:32;;;;;;;1.60;1.02;;;8.50;99.90;;;;;;4985622;28;20046;-83
2023/05/02 03:52:57;;;;;;;3.92;0.60;;;8.60;99.90;;;;;;4984545;28;20046;-84
2023/05/02 03:55:23;;;;;;;3.72;0.82;;;8.60;99.90;;;;;;4984035;28;20129;-84
2023/05/02 03:57:48;;;;;;;4.20;0.85;;;8.50;99.90;;;;;;4985506;28;20056;-81
2023/05/02 04:00:14;;;;;;;2.78;1.17;;;8.50;99.90;;;;;;4984251;28;20053;-82
2023/05/02 04:02:40;;;;;;;2.47;1.25;;;8.50;99.90;;;;;;5000784;28;20488;-84
2023/05/02 04:05:07;;;;;;;1.98;1.05;;;8.50;99.90;;;;;;4984628;28;20045;-86
2023/05/02 04:07:33;;;;;;;1.13;1.02;;;8.50;99.90;;;;;;4982620;28;20089;-84
2023/05/02 04:09:59;;;;;;;1.63;0.60;;;8.40;99.90;;;;;;4985314;28;20513;-85
2023/05/02 04:12:24;;;;;;;1.88;1.73;;;8.40;99.90;;;;;;4984935;28;20144;-81
2023/05/02 04:14:50;;;;;;;1.20;0.88;;;8.40;99.90;;;;;;4984777;28;20401;-84
2023/05/02 04:17:16;;;;;;;2.15;1.20;;;8.30;99.90;;;;;;5001183;28;20049;-85
2023/05/02 04:19:41;;;;;;;1.67;0.65;;;8.30;99.90;;;;;;4984862;28;20062;-85
2023/05/02 04:22:07;;;;;;;1.83;1.33;;;8.30;99.90;;;;;;4985416;28;20054;-86
2023/05/02 04:24:32;;;;;;;0.50;0.40;;;8.30;99.90;;;;;;5000667;28;20444;-83
2023/05/02 04:26:58;;;;;;;3.60;1.02;;;8.30;99.90;;;;;;4985523;28;20137;-86
2023/05/02 04:29:23;;;;;;;3.45;1.73;;;8.30;99.90;;;;;;4985866;28;20509;-84
2023/05/02 04:31:50;;;;;;;2.75;1.15;;;8.30;99.90;;;;;;4985143;28;20408;-84
2023/05/02 04:34:16;;;;;;;6.35;0.90;;;8.30;99.90;;;;;;4983986;28;20500;-87
2023/05/02 04:36:43;;;;;;;0.82;0.82;;;8.20;99.90;;;;;;4984553;28;20081;-82
2023/05/02 04:39:09;;;;;;;1.67;0.70;;;8.20;99.90;;;;;;4984517;28;20144;-82
2023/05/02 04:41:34;;;;;;;0.85;0.85;;;8.30;99.90;;;;;;4983789;28;20035;-85
2023/05/02 04:44:00;;;;;;;2.85;0.75;;;8.30;99.90;;;;;;4986225;28;20409;-82
2023/05/02 04:46:26;;;;;;;1.67;0.70;;;8.30;99.90;;;;;;4985804;28;20089;-85
2023/05/02 04:48:52;;;;;;;1.50;1.30;;;8.30;99.90;;;;;;4984825;28;20120;-82
2023/05/02 04:51:17;;;;;;;1.48;0.75;;;8.30;99.90;;;;;;4999886;28;20034;-85
2023/05/02 04:53:43;;;;;;;3.67;0.52;;;8.30;99.90;;;;;;4985851;28;20398;-85
2023/05/02 04:56:08;;;;;;;5.50;0.95;;;8.30;99.90;;;;;;4983652;28;20060;-84
2023/05/02 04:58:34;;;;;;;1.75;0.52;;;8.30;99.90;;;;;;4983689;28;20315;-84
2023/05/02 05:01:00;;;;;;;1.38;0.70;;;8.30;99.90;;;;;;4985238;28;20057;-86
2023/05/02 05:03:29;;;;;;;1.42;1.33;;;8.30;99.90;;;;;;4985144;28;20038;-85
2023/05/02 05:05:55;;;;;;;1.48;1.10;;;8.30;99.90;;;;;;4984557;28;20056;-85
2023/05/02 05:08:20;;;;;;;2.45;0.47;;;8.30;99.90;;;;;;4984942;28;20121;-82
2023/05/02 05:10:46;;;;;;;1.35;0.88;;;8.30;99.90;;;;;;4984722;28;20058;-85
2023/05/02 05:13:12;;;;;;;1.90;0.47;;;8.30;99.90;;;;;;4985551;28;20785;-85
2023/05/02 05:15:39;;;;;;;0.75;0.65;;;8.30;99.90;;;;;;4983891;28;20105;-86
2023/05/02 05:18:05;;;;;;;1.70;1.58;;;8.30;99.90;;;;;;4983338;28;20034;-85
2023/05/02 05:20:32;;;;;;;5.88;1.45;;;8.30;99.90;;;;;;4985214;28;20552;-86
2023/05/02 05:22:58;;;;;;;1.30;1.00;;;8.30;99.90;;;;;;4983631;28;20520;-85
2023/05/02 05:25:26;;;;;;;2.20;0.93;;;8.30;99.90;;;;;;4984166;28;20034;-83
2023/05/02 05:27:52;;;;;;;2.47;0.50;;;8.30;99.90;;;;;;4985452;28;20038;-88
2023/05/02 05:30:17;;;;;;;5.10;0.73;;;8.30;99.90;;;;;;4983782;28;20077;-83
2023/05/02 05:32:43;;;;;;;1.67;0.75;;;8.30;99.90;;;;;;5000278;28;20053;-86
2023/05/02 05:35:09;;;;;;;1.55;0.90;;;8.40;99.90;;;;;;4984370;28;20046;-85
2023/05/02 05:37:38;;;;;;;3.20;1.25;;;8.40;99.90;;;;;;4984426;28;20034;-85
2023/05/02 05:40:06;;;;;;;1.60;0.73;;;8.40;99.90;;;;;;4983678;28;20107;-86
2023/05/02 05:42:31;;;;;;;2.42;0.98;;;8.40;99.90;;;;;;4984667;28;20038;-85
2023/05/02 05:44:57;;;;;;;0.85;0.75;;;8.40;99.90;;;;;;4983840;28;20727;-83
2023/05/02 05:47:22;;;;;;;4.22;0.93;;;8.40;99.90;;;;;;4984853;28;20129;-87
2023/05/02 05:49:55;;;;;;;9.32;0.85;;;8.40;99.90;;;;;;4984674;28;20607;-85
2023/05/02 05:52:21;;;;;;;1.48;0.88;;;8.40;99.90;;;;;;4983126;28;20045;-85
2023/05/02 05:54:46;;;;;;;2.35;1.15;;;8.40;99.90;;;;;;4983755;28;20044;-85
2023/05/02 05:57:12;;;;;;;3.80;1.05;;;8.50;99.90;;;;;;4983890;28;20313;-84
2023/05/02 05:59:38;;;;;;;2.30;0.57;;;8.40;99.90;;;;;;4982444;28;20042;-85
2023/05/02 06:02:04;;;;;;;3.17;1.10;;;8.50;99.90;;;;;;4984413;28;20043;-83
2023/05/02 06:04:30;;;;;;;2.80;0.98;;;8.50;99.90;;;;;;4988618;28;20043;-83
2023/05/02 06:06:56;;;;;;;2.33;1.98;;;8.50;99.90;;;;;;4985219;28;20042;-85
2023/05/02 06:09:21;;;;;;;2.85;1.10;;;8.50;99.90;;;;;;4987935;28;20156;-84
2023/05/02 06:11:47;;;;;;;2.42;1.00;;;8.50;99.90;;;;;;4986626;28;20492;-85
2023/05/02 06:14:13;;;;;;;1.85;0.57;;;8.50;99.90;;;;;;4986556;28;20046;-85
2023/05/02 06:16:39;;;;;;;2.55;2.08;;;8.50;99.90;;;;;;4987665;28;20052;-86
2023/05/02 06:19:04;;;;;;;3.28;0.80;;;8.50;99.90;;;;;;4988144;28;20398;-87
2023/05/02 06:21:31;;;;;;;1.60;1.10;;;8.50;99.90;;;;;;4987471;28;20073;-86
2023/05/02 06:23:56;;;;;;;3.40;0.60;;;8.50;99.90;;;;;;4987200;28;20463;-83
2023/05/02 06:26:22;;;;;;;2.72;1.23;;;8.60;99.90;;;;;;4987881;28;20126;-84
2023/05/02 06:28:47;;;;;;;5.25;1.00;;;8.60;99.90;;;;;;4987582;28;20545;-84
2023/05/02 06:31:15;;;;;;;1.70;0.70;;;8.60;99.90;;;;;;4985585;28;20544;-85
2023/05/02 06:33:41;;;;;;;1.17;0.77;;;8.70;99.90;;;;;;4986006;28;20042;-84
2023/05/02 06:36:07;;;;;;;2.88;1.10;;;8.70;99.90;;;;;;4986341;28;20050;-81
2023/05/02 06:38:32;;;;;;;4.40;2.13;;;8.70;99.90;;;;;;4986232;28;20408;-84
2023/05/02 06:40:58;;;;;;;2.05;0.70;;;8.70;99.90;;;;;;4987980;28;20101;-87
2023/05/02 06:43:24;;;;;;;2.80;0.77;;;8.70;99.90;;;;;;4987965;28;20118;-82
2023/05/02 06:45:53;;;;;;;2.03;1.13;;;8.70;99.90;;;;;;4988067;28;20057;-85
2023/05/02 06:48:19;;;;;;;1.90;1.75;;;8.70;99.90;;;;;;4987681;28;20046;-86
2023/05/02 06:50:44;;;;;;;1.13;1.00;;;8.70;99.90;;;;;;4987307;28;20061;-82
2023/05/02 06:53:10;;;;;;;0.75;0.55;;;8.60;99.90;;;;;;4987177;28;20042;-87
2023/05/02 06:55:35;;;;;;;2.80;0.80;;;8.60;99.90;;;;;;4987265;28;20129;-85
2023/05/02 06:58:01;;;;;;;2.40;1.15;;;8.60;99.90;;;;;;4987574;28;20047;-87
2023/05/02 07:00:27;;;;;;;0.85;0.82;;;8.60;99.90;;;;;;4987905;28;20082;-87
2023/05/02 07:02:52;;;;;;;2.13;1.02;;;8.70;99.90;;;;;;4987434;28;20074;-83
2023/05/02 07:05:18;;;;;;;2.72;1.00;;;8.70;99.90;;;;;;4969274;28;20093;-87
2023/05/02 07:07:44;;;;;;;1.05;0.85;;;8.80;99.90;;;;;;4986713;28;20042;-85
2023/05/02 07:10:10;;;;;;;0.85;0.82;;;8.90;99.90;;;;;;4986718;28;20046;-86
2023/05/02 07:12:37;;;;;;;4.72;1.23;;;9.00;99.90;;;;;;4986163;28;20058;-85
2023/05/02 07:15:04;;;;;;;4.50;1.40;;;9.00;99.90;;;;;;4987488;28;20054;-85
2023/05/02 07:17:30;;;;;;;2.97;0.60;;;9.10;99.90;;;;;;4987203;28;20043;-87
2023/05/02 07:19:56;;;;;;;4.00;1.13;;;9.00;99.90;;;;;;4987380;28;20061;-85
2023/05/02 07:22:22;;;;;;;6.75;1.55;;;9.10;99.90;;;;;;4986903;28;20421;-85
2023/05/02 07:24:47;;;;;;;3.15;1.42;;;9.10;99.90;;;;;;4987373;28;20401;-87
2023/05/02 07:27:13;;;;;;;2.05;0.75;;;9.10;99.90;;;;;;4984763;28;20043;-85
2023/05/02 07:29:41;;;;;;;2.55;1.33;;;9.00;99.90;;;;;;4986514;28;20061;-85
2023/05/02 07:32:06;;;;;;;1.90;0.80;;;9.00;99.90;;;;;;4986394;28;20053;-84
2023/05/02 07:34:32;;;;;;;1.33;1.15;;;9.10;99.90;;;;;;4984850;28;20046;-85
2023/05/02 07:36:58;;;;;;;1.20;0.70;;;9.10;99.90;;;;;;4985642;28;20042;-80
2023/05/02 07:39:24;;;;;;;4.07;1.20;;;9.10;99.90;;;;;;4986474;28;20057;-84
2023/05/02 07:41:51;;;;;;;0.88;0.70;;;9.10;99.90;;;;;;4985942;28;20082;-86
2023/05/02 07:44:17;;;;;;;2.58;0.80;;;9.10;99.90;;;;;;4985111;28;20551;-84
2023/05/02 07:46:42;;;;;;;1.35;0.75;;;9.10;99.90;;;;;;4986648;28;20046;-83
2023/05/02 07:49:08;;;;;;;5.90;1.63;;;9.10;99.90;;;;;;4984669;28;20054;-85
2023/05/02 07:51:33;;;;;;;6.55;1.52;;;9.20;99.90;;;;;;4985791;28;20046;-84
2023/05/02 07:54:00;;;;;;;2.20;1.27;;;9.20;99.90;;;;;;4986342;28;20057;-82
2023/05/02 07:56:26;;;;;;;0.95;0.82;;;9.30;99.90;;;;;;4986105;28;20224;-85
2023/05/02 07:58:52;;;;;;;0.77;0.70;;;9.30;99.90;;;;;;4986278;28;20101;-82
2023/05/02 08:01:18;;;;;;;0.60;0.60;;;9.30;99.90;;;;;;4985653;28;20771;-85
2023/05/02 08:03:44;;;;;;;0.80;0.77;;;9.30;99.90;;;;;;4985727;28;20038;-84
2023/05/02 08:06:10;;;;;;;2.28;1.50;;;9.30;99.90;;;;;;4984229;28;20047;-86
2023/05/02 08:08:36;;;;;;;2.60;0.80;;;9.30;99.90;;;;;;4986458;28;20043;-85
2023/05/02 08:11:02;;;;;;;20.27;1.50;;;9.40;99.90;;;;;;4986077;28;20054;-86
2023/05/02 08:13:28;;;;;;;4.82;0.80;;;9.40;99.90;;;;;;4968764;28;20160;-84
2023/05/02 08:15:57;;;;;;;3.13;1.15;;;9.30;99.90;;;;;;4986255;28;20577;-85
2023/05/02 08:18:26;;;;;;;1.10;0.65;;;9.40;99.90;;;;;;4986332;28;20050;-85
2023/05/02 08:20:53;;;;;;;0.70;0.63;;;9.40;99.90;;;;;;4985257;28;20038;-82
2023/05/02 08:23:18;;;;;;;0.50;0.50;;;9.40;99.90;;;;;;4984374;28;20141;-85
2023/05/02 08:25:44;;;;;;;1.20;0.63;;;9.40;99.90;;;;;;4967853;28;20133;-85
2023/05/02 08:28:10;;;;;;;2.65;0.77;;;9.50;99.90;;;;;;4985926;28;20038;-84
2023/05/02 08:30:35;;;;;;;3.03;0.68;;;9.50;99.90;;;;;;4985778;28;20566;-86
2023/05/02 08:33:01;;;;;;;1.08;0.45;;;9.50;99.90;;;;;;5000883;28;20065;-84
2023/05/02 08:35:30;;;;;;;1.90;0.50;;;9.50;99.90;;;;;;4985989;28;20050;-86
2023/05/02 08:37:55;;;;;;;4.93;0.90;;;9.50;99.90;;;;;;4984309;28;20039;-87
2023/05/02 08:40:22;;;;;;;4.72;0.70;;;9.60;99.90;;;;;;4985572;28;20361;-87
2023/05/02 08:42:48;;;;;;;0.52;0.20;;;9.60;99.90;;;;;;4968471;28;20125;-88
2023/05/02 08:45:14;;;;;;;0.55;0.55;;;9.60;99.90;;;;;;4985466;28;20125;-82
2023/05/02 08:47:43;;;;;;;1.15;0.85;;;9.60;99.90;;;;;;4985835;28;20607;-86
2023/05/02 08:50:10;;;;;;;0.35;0.32;;;9.60;99.90;;;;;;4984566;28;20563;-85
2023/05/02 08:52:36;;;;;;;2.55;0.60;;;9.60;99.90;;;;;;4984347;28;20069;-84
2023/05/02 08:55:03;;;;;;;0.45;0.45;;;9.60;99.90;;;;;;4984664;28;20096;-82
2023/05/02 08:57:29;;;;;;;0.40;0.40;;;9.50;99.90;;;;;;4985976;28;20141;-87
2023/05/02 08:59:56;;;;;;;1.00;0.55;;;9.60;99.90;;;;;;4984532;28;20685;-86
2023/05/02 09:02:40;;;;;;;0.50;0.50;;;9.60;99.90;;;;;;4985306;28;20043;-85
2023/05/02 09:05:08;;;;;;;1.10;0.40;;;9.70;99.90;;;;;;4983526;28;20369;-84
2023/05/02 09:07:46;;;;;;;1.23;0.50;;;9.70;99.90;;;;;;4984550;28;20054;-83
2023/05/02 09:10:13;;;;;;;1.77;0.68;;;9.80;99.90;;;;;;4983398;28;20063;-82
2023/05/02 09:12:38;;;;;;;1.15;0.80;;;9.90;99.90;;;;;;4984922;28;20428;-86
2023/05/02 09:15:09;;;;;;;2.35;0.93;;;10.00;99.90;;;;;;4967608;28;20042;-82
2023/05/02 09:17:42;;;;;;;0.28;0.22;;;10.00;99.90;;;;;;4985667;28;20053;-83
2023/05/02 09:20:13;;;;;;;2.15;1.30;;;10.00;99.90;;;;;;4983903;28;20050;-83
2023/05/02 09:22:46;;;;;;;0.47;0.40;;;10.10;99.90;;;;;;4984323;28;20548;-85
2023/05/02 09:25:12;;;;;;;1.40;0.63;;;10.10;99.90;;;;;;4983862;28;20552;-85
2023/05/02 09:27:54;;;;;;;0.43;0.40;;;10.20;99.90;;;;;;4985018;28;20077;-82
2023/05/02 09:30:26;;;;;;;2.03;0.88;;;10.30;99.90;;;;;;4985325;28;20049;-84
2023/05/02 09:32:54;;;;;;;0.55;0.45;;;10.30;99.90;;;;;;4985446;28;20066;-85
2023/05/02 09:35:22;;;;;;;0.52;0.52;;;10.40;99.90;;;;;;4984390;28;20050;-86
2023/05/02 09:37:58;;;;;;;0.80;0.57;;;10.40;99.90;;;;;;4982916;28;20073;-84
2023/05/02 09:40:26;;;;;;;1.38;0.40;;;10.40;99.90;;;;;;4984858;28;20129;-86
2023/05/02 09:42:51;;;;;;;0.32;0.32;;;10.40;99.90;;;;;;4984777;28;20113;-85
2023/05/02 09:45:24;;;;;;;0.50;0.50;;;10.50;99.90;;;;;;4984668;28;20133;-86
2023/05/02 09:47:51;;;;;;;1.77;0.47;;;10.50;99.90;;;;;;4984662;28;20042;-86
2023/05/02 09:50:34;;;;;;;0.90;0.80;;;10.40;99.90;;;;;;4984547;28;20045;-82
2023/05/02 09:53:04;;;;;;;0.88;0.68;;;10.40;99.90;;;;;;4984534;28;20081;-85
2023/05/02 09:55:30;;;;;;;1.05;0.45;;;10.40;99.90;;;;;;4983919;28;20050;-85
2023/05/02 09:57:56;;;;;;;2.47;0.80;;;10.40;99.90;;;;;;4984265;28;20088;-82
2023/05/02 10:00:21;;;;;;;0.50;0.40;;;10.40;99.90;;;;;;4984087;28;20125;-81
2023/05/02 10:02:50;;;;;;;0.55;0.30;;;10.40;99.90;;;;;;4982489;28;20711;-83
2023/05/02 10:05:16;;;;;;;0.20;0.20;;;10.50;99.90;;;;;;4982664;28;20053;-85
2023/05/02 10:07:44;;;;;;;4.38;1.65;;;10.60;99.90;;;;;;4983583;28;20046;-85
2023/05/02 10:10:16;;;;;;;0.73;0.73;;;10.70;99.90;;;;;;4984905;28;20065;-84
2023/05/02 10:12:42;;;;;;;1.08;0.63;;;10.80;99.90;;;;;;4984696;28;20398;-86
2023/05/02 10:15:12;;;;;;;0.43;0.20;;;10.90;99.90;;;;;;4983405;28;20049;-87
2023/05/02 10:17:47;;;;;;;1.60;0.47;;;10.90;99.90;;;;;;4983231;28;20046;-87
2023/05/02 10:20:17;;;;;;;2.47;0.95;;;10.90;99.90;;;;;;4982485;28;20042;-86
2023/05/02 10:22:46;;;;;;;0.20;0.20;;;10.80;99.90;;;;;;4982339;28;20039;-84
2023/05/02 10:25:12;;;;;;;1.00;0.52;;;10.70;99.90;;;;;;4984603;28;20393;-85
2023/05/02 10:27:38;;;;;;;0.65;0.52;;;10.80;99.90;;;;;;4984460;28;20041;-85
2023/05/02 10:30:05;;;;;;;0.65;0.52;;;10.70;99.90;;;;;;4984343;28;20670;-84
2023/05/02 10:32:33;;;;;;;0.50;0.50;;;10.70;99.90;;;;;;4984934;28;20047;-86
2023/05/02 10:35:04;;;;;;;0.93;0.50;;;10.80;99.90;;;;;;4982919;28;20056;-86
2023/05/02 10:37:32;;;;;;;0.65;0.60;;;10.80;99.90;;;;;;4981980;28;20053;-86
2023/05/02 10:39:59;;;;;;;1.95;0.60;;;10.70;99.90;;;;;;4983120;28;20493;-86
2023/05/02 10:42:25;;;;;;;1.67;0.90;;;10.70;99.90;;;;;;4983055;28;20039;-87
2023/05/02 10:44:51;;;;;;;1.85;0.50;;;10.70;99.90;;;;;;4984510;28;20038;-86
2023/05/02 10:47:21;;;;;;;1.33;0.95;;;10.70;99.90;;;;;;4984731;28;20117;-83
2023/05/02 10:50:04;;;;;;;1.15;0.77;;;10.70;99.90;;;;;;4988053;28;20050;-87
2023/05/02 10:52:34;;;;;;;2.58;0.75;;;10.60;99.90;;;;;;4986872;28;20133;-86
2023/05/02 10:55:19;;;;;;;0.93;0.50;;;10.70;99.90;;;;;;4986741;28;20042;-84
2023/05/02 10:57:57;;;;;;;3.60;1.25;;;10.70;99.90;;;;;;4970305;28;20400;-88
2023/05/02 11:00:30;;;;;;;0.98;0.50;;;10.80;99.90;;;;;;4988029;28;20050;-88
2023/05/02 11:02:56;;;;;;;3.38;0.88;;;10.80;99.90;;;;;;4986346;28;20501;-86
2023/05/02 11:05:23;;;;;;;0.43;0.40;;;10.70;99.90;;;;;;4984718;28;20078;-87
2023/05/02 11:07:49;;;;;;;0.65;0.50;;;10.70;99.90;;;;;;4987810;28;20049;-85
2023/05/02 11:10:19;;;;;;;0.90;0.57;;;10.70;99.90;;;;;;4986414;28;20050;-83
2023/05/02 11:12:47;;;;;;;0.80;0.80;;;10.70;99.90;;;;;;4986215;28;20448;-87
2023/05/02 11:15:33;;;;;;;0.30;0.30;;;10.80;99.90;;;;;;4988055;28;20045;-85
2023/05/02 11:18:10;;;;;;;0.95;0.30;;;10.80;99.90;;;;;;4982381;28;20050;-86
2023/05/02 11:20:40;;;;;;;3.80;0.75;;;10.90;99.90;;;;;;4986438;28;20113;-87
2023/05/02 11:23:15;;;;;;;0.30;0.30;;;11.00;99.90;;;;;;4987003;28;20058;-87
2023/05/02 11:25:48;;;;;;;0.60;0.57;;;11.00;99.90;;;;;;4987754;28;20057;-87
2023/05/02 11:28:32;;;;;;;;;;;11.10;99.90;;;;;;4986671;28;20038;-87
2023/05/02 11:30:58;;;;;;;1.67;0.32;;;11.10;99.90;;;;;;4986978;28;20230;-85
2023/05/02 11:33:23;;;;;;;0.55;0.30;;;11.10;99.90;;;;;;4986903;28;20373;-87
2023/05/02 11:35:50;;;;;;;1.23;0.65;;;11.00;99.90;;;;;;4985722;28;20068;-87
2023/05/02 11:38:18;;;;;;;8.63;0.90;;;10.90;99.90;;;;;;4987402;28;20046;-81
2023/05/02 11:40:58;;;;;;;0.50;0.50;;;10.90;99.90;;;;;;4985858;28;20049;-88
2023/05/02 11:43:25;;;;;;;0.30;0.30;;;10.90;99.90;;;;;;4986153;28;20373;-86
2023/05/02 11:45:52;;;;;;;0.52;0.43;;;10.90;99.90;;;;;;4985337;28;20401;-87
2023/05/02 11:48:20;;;;;;;0.60;0.60;;;10.90;99.90;;;;;;4986698;28;20142;-84
2023/05/02 11:50:49;;;;;;;1.10;0.50;;;10.90;99.90;;;;;;4986118;28;20042;-85
2023/05/02 11:53:17;;;;;;;0.57;0.43;;;10.90;99.90;;;;;;4987355;28;20374;-89
2023/05/02 11:55:51;;;;;;;1.40;0.65;;;10.90;99.90;;;;;;4985547;28;20046;-87
2023/05/02 11:58:19;;;;;;;0.95;0.70;;;11.00;99.90;;;;;;4986005;28;20362;-84
2023/05/02 12:00:46;;;;;;;1.08;0.32;;;11.10;99.90;;;;;;4987167;28;20050;-85
2023/05/02 12:03:30;;;;;;;0.63;0.40;;;11.20;99.90;;;;;;4986917;28;20050;-88
2023/05/02 12:05:57;;;;;;;0.90;0.90;;;11.10;99.90;;;;;;4967987;28;20039;-84
2023/05/02 12:08:25;;;;;;;0.73;0.40;;;11.20;99.90;;;;;;4987082;28;20058;-86
2023/05/02 12:10:52;;;;;;;2.33;0.30;;;11.20;99.90;;;;;;4984971;28;20050;-87
2023/05/02 12:13:19;;;;;;;0.65;0.50;;;11.20;99.90;;;;;;4985639;28;20093;-84
2023/05/02 12:15:45;;;;;;;3.40;0.75;;;11.20;99.90;;;;;;4986403;28;20508;-85
2023/05/02 12:18:12;;;;;;;0.70;0.70;;;11.20;99.90;;;;;;4986157;28;20035;-87
2023/05/02 12:20:38;;;;;;;1.98;0.73;;;11.20;99.90;;;;;;4985943;28;20046;-86
2023/05/02 12:23:08;;;;;;;1.27;0.57;;;11.20;99.90;;;;;;4985958;28;20520;-88
2023/05/02 12:25:39;;;;;;;2.83;0.35;;;11.10;99.90;;;;;;4968441;28;20404;-88
2023/05/02 12:28:04;;;;;;;1.45;1.05;;;11.20;99.90;;;;;;4985545;28;20396;-87
2023/05/02 12:30:31;;;;;;;2.42;0.35;;;11.20;99.90;;;;;;4984654;28;20064;-85
2023/05/02 12:33:00;;;;;;;0.75;0.25;;;11.30;99.90;;;;;;4985946;28;20130;-88
2023/05/02 12:35:27;;;;;;;0.32;0.32;;;11.40;99.90;;;;;;4984809;28;20046;-86
2023/05/02 12:37:55;;;;;;;2.42;0.30;;;11.30;99.90;;;;;;4985723;28;20034;-86
2023/05/02 12:40:21;;;;;;;0.95;0.10;;;11.40;99.90;;;;;;4985393;28;20042;-83
2023/05/02 12:43:02;;;;;;;0.57;0.30;;;11.40;99.90;;;;;;4985408;28;20050;-86
2023/05/02 12:45:32;;;;;;;1.27;1.17;;;11.40;99.90;;;;;;4985010;28;20053;-87
2023/05/02 12:48:19;;;;;;;0.28;0.22;;;11.40;99.90;;;;;;4985867;28;20105;-85
2023/05/02 12:50:45;;;;;;;0.30;0.30;;;11.40;99.90;;;;;;4985440;28;20354;-87
2023/05/02 12:53:10;;;;;;;2.38;0.32;;;11.40;99.90;;;;;;4986040;28;20199;-88
2023/05/02 12:55:36;;;;;;;0.20;0.20;;;11.40;99.90;;;;;;4985209;28;20105;-84
2023/05/02 12:58:05;;;;;;;1.75;0.30;;;11.40;99.90;;;;;;4985843;28;20133;-87
2023/05/02 13:00:33;;;;;;;0.43;0.15;;;11.50;99.90;;;;;;4984745;28;20046;-86